createdAt,value
2023-03-21T00:00:00.949Z,96.80
2023-03-21T00:01:04.102Z,96.60
2023-03-21T00:02:08.540Z,97.00
2023-03-21T00:03:10.595Z,96.47
2023-03-21T00:04:13.429Z,96.33
2023-03-21T00:05:16.279Z,96.61
2023-03-21T00:06:19.209Z,96.76
2023-03-21T00:07:21.052Z,96.23
2023-03-21T00:08:27.036Z,96.36
2023-03-21T00:09:28.814Z,96.06
2023-03-21T00:10:41.661Z,95.89
2023-03-21T00:11:46.595Z,96.49
2023-03-21T00:12:50.437Z,96.50
2023-03-21T00:13:53.373Z,96.45
2023-03-21T00:15:04.551Z,96.17
2023-03-21T00:16:16.895Z,96.71
2023-03-21T00:17:25.472Z,96.36
2023-03-21T00:18:27.584Z,96.22
2023-03-21T00:19:30.433Z,96.66
2023-03-21T00:20:34.389Z,96.30
2023-03-21T00:21:59.233Z,96.31
2023-03-21T00:23:00.295Z,96.21
2023-03-21T00:24:04.792Z,96.50
2023-03-21T00:25:08.323Z,96.38
2023-03-21T00:26:11.984Z,96.07
2023-03-21T00:27:42.593Z,96.39
2023-03-21T00:28:36.797Z,96.82
2023-03-21T00:29:38.687Z,96.66
2023-03-21T00:30:41.552Z,96.87
2023-03-21T00:31:43.503Z,97.02
2023-03-21T00:32:55.324Z,96.88
2023-03-21T00:33:58.606Z,97.02
2023-03-21T00:35:31.594Z,96.84
2023-03-21T00:36:25.929Z,96.81
2023-03-21T00:37:28.421Z,96.90
2023-03-21T00:38:31.257Z,96.88
2023-03-21T00:39:34.669Z,96.78
2023-03-21T00:40:43.788Z,96.70
2023-03-21T00:41:49.988Z,96.25
2023-03-21T00:42:53.197Z,96.27
2023-03-21T00:43:55.636Z,96.40
2023-03-21T00:44:58.619Z,96.29
2023-03-21T00:46:00.770Z,96.35
2023-03-21T00:47:07.496Z,96.64
2023-03-21T00:48:11.074Z,96.52
2023-03-21T00:49:13.990Z,96.97
2023-03-21T00:50:16.495Z,96.69
2023-03-21T00:51:38.081Z,96.84
2023-03-21T00:52:41.418Z,96.80
2023-03-21T00:53:44.360Z,96.78
2023-03-21T00:54:47.726Z,96.27
2023-03-21T00:55:51.013Z,96.23
2023-03-21T00:56:53.704Z,96.49
2023-03-21T00:58:02.096Z,96.69
2023-03-21T00:59:05.637Z,96.88
2023-03-21T01:00:10.250Z,97.04
2023-03-21T01:01:13.518Z,97.22
2023-03-21T01:02:22.870Z,97.55
2023-03-21T01:03:26.827Z,97.63
2023-03-21T01:04:28.805Z,97.57
2023-03-21T01:05:50.739Z,98.10
2023-03-21T01:06:54.453Z,97.78
2023-03-21T01:07:57.669Z,98.23
2023-03-21T01:09:00.445Z,98.05
2023-03-21T01:10:04.334Z,98.38
2023-03-21T01:11:09.521Z,98.09
2023-03-21T01:12:12.732Z,98.41
2023-03-21T01:13:16.957Z,98.13
2023-03-21T01:14:23.696Z,98.49
2023-03-21T01:15:27.227Z,98.64
2023-03-21T01:16:30.119Z,98.59
2023-03-21T01:17:31.971Z,98.71
2023-03-21T01:18:35.914Z,98.45
2023-03-21T01:19:51.161Z,98.61
2023-03-21T01:20:56.121Z,98.32
2023-03-21T01:21:58.282Z,98.30
2023-03-21T01:23:01.535Z,98.34
2023-03-21T01:24:03.973Z,98.81
2023-03-21T01:25:21.508Z,98.68
2023-03-21T01:26:24.777Z,99.03
2023-03-21T01:27:27.583Z,98.96
2023-03-21T01:28:30.085Z,98.64
2023-03-21T01:29:33.225Z,98.64
2023-03-21T01:30:41.652Z,98.75
2023-03-21T01:31:45.013Z,98.95
2023-03-21T01:32:47.103Z,98.99
2023-03-21T01:33:49.926Z,98.73
2023-03-21T01:34:52.005Z,98.86
2023-03-21T01:36:06.537Z,98.57
2023-03-21T01:37:17.683Z,98.56
2023-03-21T01:38:22.606Z,99.07
2023-03-21T01:39:25.437Z,98.81
2023-03-21T01:40:30.299Z,99.05
2023-03-21T01:41:52.233Z,99.27
2023-03-21T01:42:57.277Z,98.85
2023-03-21T01:44:00.570Z,99.06
2023-03-21T01:45:46.738Z,99.16
2023-03-21T01:47:11.497Z,99.78
2023-03-21T01:48:23.532Z,99.75
2023-03-21T01:49:35.966Z,100.00
2023-03-21T01:50:46.244Z,99.89
2023-03-21T01:52:11.578Z,99.85
2023-03-21T01:53:16.069Z,99.43
2023-03-21T01:54:24.699Z,99.76
2023-03-21T01:55:26.810Z,99.42
2023-03-21T01:56:38.788Z,99.89
2023-03-21T01:58:02.065Z,99.99
2023-03-21T01:59:28.417Z,99.51
2023-03-21T02:00:56.830Z,100.00
2023-03-21T02:02:13.429Z,99.75
2023-03-21T02:03:35.971Z,100.00
2023-03-21T02:05:08.251Z,100.00
2023-03-21T02:06:13.277Z,99.59
2023-03-21T02:07:23.111Z,99.88
2023-03-21T02:08:38.821Z,99.80
2023-03-21T02:09:49.646Z,99.78
2023-03-21T02:10:55.095Z,99.98
2023-03-21T02:12:11.035Z,100.00
2023-03-21T02:13:13.167Z,99.93
2023-03-21T02:14:29.052Z,99.94
2023-03-21T02:15:58.452Z,100.00
2023-03-21T02:17:13.603Z,99.86
2023-03-21T02:18:20.922Z,99.92
2023-03-21T02:19:52.785Z,100.00
2023-03-21T02:21:28.640Z,100.00
2023-03-21T02:22:51.236Z,99.83
2023-03-21T02:24:48.906Z,100.00
2023-03-21T02:26:23.353Z,100.00
2023-03-21T02:27:30.417Z,100.00
2023-03-21T02:28:40.604Z,100.00
2023-03-21T02:30:05.584Z,99.90
2023-03-21T02:31:19.975Z,99.79
2023-03-21T02:32:37.402Z,99.78
2023-03-21T02:34:04.182Z,99.72
2023-03-21T02:35:26.325Z,99.82
2023-03-21T02:36:36.254Z,100.00
2023-03-21T02:37:44.673Z,99.58
2023-03-21T02:38:54.702Z,99.53
2023-03-21T02:40:09.683Z,99.83
2023-03-21T02:41:19.462Z,99.81
2023-03-21T02:42:30.171Z,100.00
2023-03-21T02:43:37.448Z,100.00
2023-03-21T02:44:43.666Z,99.88
2023-03-21T02:45:48.164Z,99.49
2023-03-21T02:47:03.097Z,99.48
2023-03-21T02:48:20.205Z,100.00
2023-03-21T02:49:30.706Z,100.00
2023-03-21T02:50:35.455Z,100.00
2023-03-21T02:51:38.389Z,99.99
2023-03-21T02:52:45.543Z,99.89
2023-03-21T02:53:55.010Z,99.80
2023-03-21T02:55:15.482Z,99.80
2023-03-21T02:56:26.127Z,99.74
2023-03-21T02:57:42.210Z,99.80
2023-03-21T02:58:46.796Z,99.94
2023-03-21T02:59:56.871Z,100.00
2023-03-21T03:01:09.713Z,100.00
2023-03-21T03:02:22.282Z,100.00
2023-03-21T03:03:34.113Z,100.00
2023-03-21T03:04:39.346Z,100.00
2023-03-21T03:05:44.208Z,100.00
2023-03-21T03:07:12.258Z,100.00
2023-03-21T03:08:26.536Z,100.00
2023-03-21T03:09:44.551Z,100.00
2023-03-21T03:11:02.688Z,100.00
2023-03-21T03:12:11.614Z,100.00
2023-03-21T03:13:23.652Z,100.00
2023-03-21T03:14:56.386Z,99.90
2023-03-21T03:16:13.537Z,100.00
2023-03-21T03:17:25.850Z,100.00
2023-03-21T03:18:35.945Z,100.00
2023-03-21T03:19:51.124Z,100.00
2023-03-21T03:21:01.999Z,100.00
2023-03-21T03:22:07.553Z,100.00
2023-03-21T03:23:22.208Z,100.00
2023-03-21T03:24:27.975Z,100.00
2023-03-21T03:25:42.504Z,100.00
2023-03-21T03:26:52.083Z,100.00
2023-03-21T03:27:56.252Z,100.00
2023-03-21T03:28:59.476Z,100.00
2023-03-21T03:30:04.138Z,100.00
2023-03-21T03:31:10.099Z,100.00
2023-03-21T03:32:19.247Z,100.00
2023-03-21T03:33:24.406Z,100.00
2023-03-21T03:34:32.569Z,100.00
2023-03-21T03:35:35.551Z,100.00
2023-03-21T03:36:43.035Z,99.91
2023-03-21T03:37:51.944Z,100.00
2023-03-21T03:38:57.363Z,100.00
2023-03-21T03:40:05.636Z,99.89
2023-03-21T03:41:12.785Z,99.76
2023-03-21T03:42:28.867Z,99.85
2023-03-21T03:43:41.641Z,99.67
2023-03-21T03:44:44.563Z,99.63
2023-03-21T03:45:50.879Z,99.67
2023-03-21T03:46:58.099Z,99.76
2023-03-21T03:48:05.906Z,100.00
2023-03-21T03:49:13.977Z,99.83
2023-03-21T03:50:23.097Z,100.00
2023-03-21T03:51:28.622Z,100.00
2023-03-21T03:52:57.316Z,100.00
2023-03-21T03:54:07.864Z,100.00
2023-03-21T03:55:12.980Z,100.00
2023-03-21T03:56:17.676Z,100.00
2023-03-21T03:57:21.029Z,100.00
2023-03-21T03:58:33.464Z,100.00
2023-03-21T03:59:44.977Z,100.00
2023-03-21T04:01:19.653Z,100.00
2023-03-21T04:02:21.599Z,100.00
2023-03-21T04:03:25.216Z,100.00
2023-03-21T04:04:29.325Z,100.00
2023-03-21T04:05:32.955Z,99.46
2023-03-21T04:06:35.049Z,99.32
2023-03-21T04:07:38.136Z,99.31
2023-03-21T04:08:40.004Z,99.38
2023-03-21T04:09:45.479Z,99.18
2023-03-21T04:10:51.706Z,99.06
2023-03-21T04:11:54.721Z,99.60
2023-03-21T04:12:56.929Z,99.71
2023-03-21T04:14:04.765Z,99.80
2023-03-21T04:15:11.099Z,99.86
2023-03-21T04:16:17.748Z,99.85
2023-03-21T04:17:19.881Z,100.00
2023-03-21T04:18:24.584Z,100.00
2023-03-21T04:19:27.099Z,100.00
2023-03-21T04:20:36.481Z,100.00
2023-03-21T04:21:39.062Z,100.00
2023-03-21T04:22:42.111Z,100.00
2023-03-21T04:23:43.918Z,100.00
2023-03-21T04:24:48.670Z,100.00
2023-03-21T04:25:56.700Z,100.00
2023-03-21T04:27:06.952Z,100.00
2023-03-21T04:28:15.014Z,100.00
2023-03-21T04:29:44.155Z,100.00
2023-03-21T04:31:00.299Z,100.00
2023-03-21T04:32:17.474Z,100.00
2023-03-21T04:33:26.047Z,100.00
2023-03-21T04:34:31.963Z,100.00
2023-03-21T04:35:37.764Z,100.00
2023-03-21T04:36:44.573Z,100.00
2023-03-21T04:37:47.994Z,100.00
2023-03-21T04:38:51.006Z,100.00
2023-03-21T04:39:55.389Z,100.00
2023-03-21T04:40:57.604Z,100.00
2023-03-21T04:42:01.481Z,100.00
2023-03-21T04:43:03.334Z,100.00
2023-03-21T04:44:06.170Z,100.00
2023-03-21T04:45:09.327Z,100.00
2023-03-21T04:46:12.180Z,100.00
2023-03-21T04:47:16.019Z,100.00
2023-03-21T04:48:19.827Z,100.00
2023-03-21T04:49:22.169Z,100.00
2023-03-21T04:50:25.003Z,100.00
2023-03-21T04:51:27.388Z,100.00
2023-03-21T04:52:30.709Z,100.00
2023-03-21T04:53:32.794Z,100.00
2023-03-21T04:54:36.903Z,100.00
2023-03-21T04:55:40.107Z,100.00
2023-03-21T04:56:42.941Z,100.00
2023-03-21T04:57:45.275Z,100.00
2023-03-21T04:58:48.026Z,100.00
2023-03-21T04:59:49.883Z,100.00
2023-03-21T05:00:53.510Z,100.00
2023-03-21T05:01:56.867Z,100.00
2023-03-21T05:03:00.751Z,100.00
2023-03-21T05:04:03.792Z,100.00
2023-03-21T05:05:11.338Z,100.00
2023-03-21T05:06:13.223Z,100.00
2023-03-21T05:07:16.202Z,100.00
2023-03-21T05:08:18.299Z,100.00
2023-03-21T05:09:22.116Z,100.00
2023-03-21T05:10:24.293Z,100.00
2023-03-21T05:11:30.692Z,100.00
2023-03-21T05:12:32.600Z,100.00
2023-03-21T05:13:35.922Z,100.00
2023-03-21T05:14:37.862Z,100.00
2023-03-21T05:15:41.658Z,100.00
2023-03-21T05:16:45.170Z,100.00
2023-03-21T05:17:49.018Z,100.00
2023-03-21T05:18:51.199Z,100.00
2023-03-21T05:19:56.495Z,100.00
2023-03-21T05:20:58.425Z,100.00
2023-03-21T05:22:04.609Z,100.00
2023-03-21T05:23:10.751Z,100.00
2023-03-21T05:24:16.163Z,100.00
2023-03-21T05:25:35.144Z,100.00
2023-03-21T05:26:50.247Z,100.00
2023-03-21T05:27:54.419Z,100.00
2023-03-21T05:29:01.169Z,100.00
2023-03-21T05:30:07.784Z,100.00
2023-03-21T05:31:09.811Z,100.00
2023-03-21T05:32:12.751Z,100.00
2023-03-21T05:33:15.280Z,100.00
2023-03-21T05:34:18.123Z,100.00
2023-03-21T05:35:20.190Z,100.00
2023-03-21T05:36:23.091Z,100.00
2023-03-21T05:37:25.493Z,100.00
2023-03-21T05:38:28.223Z,100.00
2023-03-21T05:39:30.223Z,100.00
2023-03-21T05:40:39.959Z,100.00
2023-03-21T05:41:43.733Z,100.00
2023-03-21T05:42:48.074Z,100.00
2023-03-21T05:43:56.068Z,100.00
2023-03-21T05:44:58.080Z,100.00
2023-03-21T05:46:07.749Z,100.00
2023-03-21T05:47:09.731Z,100.00
2023-03-21T05:48:17.630Z,100.00
2023-03-21T05:49:46.037Z,100.00
2023-03-21T05:50:48.549Z,100.00
2023-03-21T05:51:55.338Z,100.00
2023-03-21T05:52:57.250Z,100.00
2023-03-21T05:54:00.533Z,100.00
2023-03-21T05:55:02.456Z,100.00
2023-03-21T05:56:06.209Z,100.00
2023-03-21T05:57:28.806Z,100.00
2023-03-21T05:58:33.983Z,100.00
2023-03-21T05:59:37.136Z,100.00
2023-03-21T06:00:39.196Z,100.00
2023-03-21T06:01:57.060Z,100.00
2023-03-21T06:02:59.018Z,100.00
2023-03-21T06:04:12.973Z,100.00
2023-03-21T06:05:15.417Z,100.00
2023-03-21T06:06:18.243Z,100.00
2023-03-21T06:07:40.277Z,100.00
2023-03-21T06:08:43.221Z,100.00
2023-03-21T06:09:46.914Z,100.00
2023-03-21T06:10:48.773Z,100.00
2023-03-21T06:11:53.255Z,100.00
2023-03-21T06:13:02.317Z,100.00
2023-03-21T06:14:08.960Z,100.00
2023-03-21T06:15:13.676Z,100.00
2023-03-21T06:16:36.677Z,100.00
2023-03-21T06:17:39.654Z,100.00
2023-03-21T06:18:46.118Z,100.00
2023-03-21T06:20:01.834Z,100.00
2023-03-21T06:21:08.783Z,100.00
2023-03-21T06:22:11.638Z,100.00
2023-03-21T06:23:17.405Z,100.00
2023-03-21T06:24:19.868Z,100.00
2023-03-21T06:25:23.398Z,100.00
2023-03-21T06:26:25.425Z,100.00
2023-03-21T06:27:29.686Z,100.00
2023-03-21T06:28:33.858Z,100.00
2023-03-21T06:29:36.669Z,100.00
2023-03-21T06:30:38.817Z,100.00
2023-03-21T06:31:54.382Z,100.00
2023-03-21T06:32:56.424Z,100.00
2023-03-21T06:33:59.352Z,100.00
2023-03-21T06:35:02.040Z,100.00
2023-03-21T06:36:06.092Z,100.00
2023-03-21T06:37:09.810Z,100.00
2023-03-21T06:38:13.304Z,100.00
2023-03-21T06:39:16.841Z,100.00
2023-03-21T06:40:20.350Z,100.00
2023-03-21T06:41:23.696Z,100.00
2023-03-21T06:42:36.645Z,100.00
2023-03-21T06:43:48.382Z,100.00
2023-03-21T06:45:10.865Z,100.00
2023-03-21T06:46:13.468Z,100.00
2023-03-21T06:47:17.671Z,100.00
2023-03-21T06:48:21.328Z,100.00
2023-03-21T06:49:27.882Z,100.00
2023-03-21T06:50:32.881Z,100.00
2023-03-21T06:51:36.013Z,100.00
2023-03-21T06:52:45.723Z,100.00
2023-03-21T06:53:49.825Z,100.00
2023-03-21T06:55:01.193Z,100.00
2023-03-21T06:56:04.072Z,100.00
2023-03-21T06:57:07.562Z,100.00
2023-03-21T06:58:11.566Z,100.00
2023-03-21T06:59:16.069Z,100.00
2023-03-21T07:00:33.151Z,100.00
2023-03-21T07:01:35.816Z,100.00
2023-03-21T07:02:42.260Z,100.00
2023-03-21T07:03:49.345Z,100.00
2023-03-21T07:04:56.125Z,100.00
2023-03-21T07:06:05.807Z,100.00
2023-03-21T07:07:08.634Z,100.00
2023-03-21T07:08:12.668Z,100.00
2023-03-21T07:09:17.856Z,100.00
2023-03-21T07:10:20.054Z,100.00
2023-03-21T07:11:33.420Z,100.00
2023-03-21T07:12:36.325Z,100.00
2023-03-21T07:14:07.937Z,100.00
2023-03-21T07:15:11.776Z,100.00
2023-03-21T07:16:16.525Z,100.00
2023-03-21T07:17:18.334Z,100.00
2023-03-21T07:18:21.355Z,100.00
2023-03-21T07:19:23.175Z,100.00
2023-03-21T07:20:26.808Z,100.00
2023-03-21T07:21:29.797Z,100.00
2023-03-21T07:22:31.745Z,100.00
2023-03-21T07:23:34.857Z,100.00
2023-03-21T07:24:37.694Z,100.00
2023-03-21T07:25:41.992Z,100.00
2023-03-21T07:26:44.942Z,100.00
2023-03-21T07:27:47.472Z,100.00
2023-03-21T07:28:50.265Z,100.00
2023-03-21T07:29:52.103Z,100.00
2023-03-21T07:30:57.691Z,100.00
2023-03-21T07:32:01.511Z,100.00
2023-03-21T07:33:04.432Z,100.00
2023-03-21T07:34:06.717Z,100.00
2023-03-21T07:35:11.454Z,100.00
2023-03-21T07:36:16.323Z,100.00
2023-03-21T07:37:20.181Z,100.00
2023-03-21T07:38:23.183Z,100.00
2023-03-21T07:39:26.144Z,100.00
2023-03-21T07:40:28.085Z,100.00
2023-03-21T07:41:30.998Z,100.00
2023-03-21T07:42:45.347Z,100.00
2023-03-21T07:43:49.737Z,100.00
2023-03-21T07:44:55.176Z,100.00
2023-03-21T07:46:00.466Z,100.00
2023-03-21T07:47:02.637Z,100.00
2023-03-21T07:48:05.677Z,100.00
2023-03-21T07:49:09.134Z,100.00
2023-03-21T07:50:12.552Z,100.00
2023-03-21T07:51:15.416Z,100.00
2023-03-21T07:52:17.429Z,100.00
2023-03-21T07:53:20.684Z,100.00
2023-03-21T07:54:23.159Z,100.00
2023-03-21T07:55:26.316Z,100.00
2023-03-21T07:56:29.340Z,100.00
2023-03-21T07:57:31.440Z,100.00
2023-03-21T07:58:35.016Z,100.00
2023-03-21T07:59:37.681Z,100.00
2023-03-21T08:00:40.464Z,100.00
2023-03-21T08:01:43.764Z,100.00
2023-03-21T08:02:47.874Z,100.00
2023-03-21T08:03:51.304Z,100.00
2023-03-21T08:04:54.242Z,100.00
2023-03-21T08:05:56.666Z,100.00
2023-03-21T08:06:59.974Z,100.00
2023-03-21T08:08:03.378Z,100.00
2023-03-21T08:09:07.871Z,100.00
2023-03-21T08:10:11.826Z,100.00
2023-03-21T08:11:14.743Z,100.00
2023-03-21T08:12:18.041Z,100.00
2023-03-21T08:13:21.812Z,100.00
2023-03-21T08:14:23.929Z,100.00
2023-03-21T08:15:26.819Z,100.00
2023-03-21T08:16:28.865Z,100.00
2023-03-21T08:17:33.116Z,100.00
2023-03-21T08:18:35.406Z,100.00
2023-03-21T08:19:38.406Z,100.00
2023-03-21T08:20:40.208Z,100.00
2023-03-21T08:21:43.238Z,100.00
2023-03-21T08:22:48.304Z,100.00
2023-03-21T08:23:51.517Z,100.00
2023-03-21T08:24:53.654Z,100.00
2023-03-21T08:25:57.123Z,100.00
2023-03-21T08:26:58.980Z,100.00
2023-03-21T08:28:02.255Z,100.00
2023-03-21T08:29:04.136Z,100.00
2023-03-21T08:30:08.337Z,100.00
2023-03-21T08:31:12.687Z,100.00
2023-03-21T08:32:14.706Z,100.00
2023-03-21T08:33:19.473Z,100.00
2023-03-21T08:34:23.123Z,100.00
2023-03-21T08:35:25.992Z,100.00
2023-03-21T08:36:30.325Z,100.00
2023-03-21T08:37:32.286Z,100.00
2023-03-21T08:38:35.912Z,100.00
2023-03-21T08:39:39.117Z,100.00
2023-03-21T08:40:42.617Z,100.00
2023-03-21T08:41:44.549Z,100.00
2023-03-21T08:42:47.760Z,100.00
2023-03-21T08:43:50.900Z,100.00
2023-03-21T08:44:52.894Z,100.00
2023-03-21T08:45:56.014Z,100.00
2023-03-21T08:46:59.074Z,100.00
2023-03-21T08:48:01.240Z,100.00
2023-03-21T08:49:05.385Z,100.00
2023-03-21T08:50:11.557Z,100.00
2023-03-21T08:51:13.548Z,100.00
2023-03-21T08:52:16.343Z,100.00
2023-03-21T08:53:19.272Z,100.00
2023-03-21T08:54:22.957Z,100.00
2023-03-21T08:55:26.752Z,100.00
2023-03-21T08:56:28.625Z,100.00
2023-03-21T08:57:31.681Z,100.00
2023-03-21T08:58:33.788Z,100.00
2023-03-21T08:59:37.463Z,100.00
2023-03-21T09:00:40.350Z,100.00
2023-03-21T09:01:42.341Z,100.00
2023-03-21T09:02:48.750Z,100.00
2023-03-21T09:03:51.638Z,100.00
2023-03-21T09:04:58.901Z,100.00
2023-03-21T09:06:03.121Z,100.00
2023-03-21T09:07:06.309Z,100.00
2023-03-21T09:08:08.374Z,100.00
2023-03-21T09:09:11.454Z,100.00
2023-03-21T09:10:21.567Z,100.00
2023-03-21T09:11:25.459Z,100.00
2023-03-21T09:12:27.437Z,100.00
2023-03-21T09:13:30.353Z,100.00
2023-03-21T09:14:34.644Z,100.00
2023-03-21T09:15:36.932Z,100.00
2023-03-21T09:16:40.793Z,100.00
2023-03-21T09:17:44.476Z,100.00
2023-03-21T09:18:48.787Z,100.00
2023-03-21T09:19:53.306Z,100.00
2023-03-21T09:21:00.933Z,100.00
2023-03-21T09:22:05.036Z,100.00
2023-03-21T09:23:08.102Z,100.00
2023-03-21T09:24:12.619Z,100.00
2023-03-21T09:25:15.463Z,100.00
2023-03-21T09:26:18.640Z,100.00
2023-03-21T09:27:23.349Z,100.00
2023-03-21T09:28:27.465Z,100.00
2023-03-21T09:29:32.381Z,100.00
2023-03-21T09:30:36.767Z,100.00
2023-03-21T09:31:40.010Z,100.00
2023-03-21T09:32:44.504Z,100.00
2023-03-21T09:33:46.331Z,100.00
2023-03-21T09:34:49.643Z,100.00
2023-03-21T09:35:52.266Z,100.00
2023-03-21T09:36:57.071Z,100.00
2023-03-21T09:38:18.765Z,100.00
2023-03-21T09:39:21.649Z,100.00
2023-03-21T09:40:32.777Z,100.00
2023-03-21T09:41:45.151Z,100.00
2023-03-21T09:42:58.156Z,100.00
2023-03-21T09:44:14.689Z,100.00
2023-03-21T09:45:19.623Z,100.00
2023-03-21T09:46:28.593Z,100.00
2023-03-21T09:47:34.789Z,100.00
2023-03-21T09:48:54.423Z,100.00
2023-03-21T09:50:16.395Z,100.00
2023-03-21T09:51:19.521Z,100.00
2023-03-21T09:52:27.031Z,100.00
2023-03-21T09:53:33.828Z,100.00
2023-03-21T09:54:39.395Z,99.93
2023-03-21T09:55:42.088Z,100.00
2023-03-21T09:56:47.261Z,100.00
2023-03-21T09:57:51.611Z,100.00
2023-03-21T09:58:59.367Z,99.94
2023-03-21T10:00:12.121Z,99.40
2023-03-21T10:01:27.801Z,99.11
2023-03-21T10:02:38.298Z,97.80
2023-03-21T10:03:41.752Z,97.71
2023-03-21T10:04:46.427Z,97.27
2023-03-21T10:05:50.516Z,97.29
2023-03-21T10:06:59.216Z,96.85
2023-03-21T10:08:08.165Z,96.61
2023-03-21T10:09:15.775Z,95.65
2023-03-21T10:10:22.187Z,95.84
2023-03-21T10:11:28.163Z,95.99
2023-03-21T10:12:31.453Z,95.37
2023-03-21T10:13:37.231Z,95.81
2023-03-21T10:14:43.811Z,95.83
2023-03-21T10:15:46.954Z,95.77
2023-03-21T10:16:52.773Z,95.50
2023-03-21T10:17:59.575Z,94.72
2023-03-21T10:19:07.379Z,94.37
2023-03-21T10:20:15.741Z,95.35
2023-03-21T10:21:47.472Z,95.30
2023-03-21T10:22:47.654Z,95.67
2023-03-21T10:23:51.956Z,94.70
2023-03-21T10:24:54.926Z,95.04
2023-03-21T10:25:59.334Z,95.06
2023-03-21T10:27:02.618Z,93.98
2023-03-21T10:28:07.100Z,93.79
2023-03-21T10:29:12.066Z,93.60
2023-03-21T10:30:24.723Z,92.93
2023-03-21T10:31:29.839Z,92.52
2023-03-21T10:32:31.982Z,92.34
2023-03-21T10:33:36.903Z,92.76
2023-03-21T10:34:41.875Z,92.76
2023-03-21T10:35:49.947Z,91.56
2023-03-21T10:36:51.842Z,91.29
2023-03-21T10:37:54.770Z,91.34
2023-03-21T10:39:01.016Z,91.53
2023-03-21T10:40:06.343Z,91.85
2023-03-21T10:41:09.643Z,91.75
2023-03-21T10:42:19.541Z,92.21
2023-03-21T10:43:34.288Z,91.72
2023-03-21T10:44:40.089Z,92.27
2023-03-21T10:45:42.068Z,91.66
2023-03-21T10:46:52.869Z,91.34
2023-03-21T10:48:00.742Z,90.93
2023-03-21T10:49:02.876Z,90.64
2023-03-21T10:50:13.873Z,90.90
2023-03-21T10:51:22.685Z,91.89
2023-03-21T10:52:27.748Z,91.95
2023-03-21T10:53:34.385Z,91.16
2023-03-21T10:54:38.606Z,91.45
2023-03-21T10:55:41.110Z,90.61
2023-03-21T10:56:46.731Z,91.23
2023-03-21T10:57:49.648Z,90.47
2023-03-21T10:58:53.692Z,90.92
2023-03-21T10:59:58.388Z,91.33
2023-03-21T11:01:03.828Z,91.71
2023-03-21T11:02:07.027Z,91.55
2023-03-21T11:03:21.755Z,90.72
2023-03-21T11:04:28.272Z,90.86
2023-03-21T11:05:37.147Z,89.66
2023-03-21T11:06:41.719Z,89.66
2023-03-21T11:07:46.011Z,89.73
2023-03-21T11:08:50.849Z,89.65
2023-03-21T11:09:56.283Z,88.88
2023-03-21T11:11:03.372Z,88.47
2023-03-21T11:12:16.828Z,89.50
2023-03-21T11:13:24.878Z,89.54
2023-03-21T11:14:34.468Z,89.57
2023-03-21T11:15:43.678Z,89.21
2023-03-21T11:16:46.654Z,89.06
2023-03-21T11:17:49.448Z,89.05
2023-03-21T11:18:53.803Z,88.92
2023-03-21T11:19:59.284Z,89.61
2023-03-21T11:21:04.050Z,89.21
2023-03-21T11:22:08.467Z,89.67
2023-03-21T11:23:12.706Z,89.26
2023-03-21T11:24:18.189Z,89.47
2023-03-21T11:25:27.875Z,89.17
2023-03-21T11:26:32.728Z,89.08
2023-03-21T11:27:35.946Z,88.80
2023-03-21T11:28:39.291Z,89.35
2023-03-21T11:29:47.836Z,89.98
2023-03-21T11:30:51.465Z,88.98
2023-03-21T11:31:54.636Z,89.13
2023-03-21T11:32:57.872Z,89.36
2023-03-21T11:34:01.715Z,88.55
2023-03-21T11:35:07.738Z,88.35
2023-03-21T11:36:28.942Z,88.77
2023-03-21T11:37:37.630Z,88.29
2023-03-21T11:38:39.894Z,88.60
2023-03-21T11:39:43.842Z,88.54
2023-03-21T11:40:54.793Z,88.55
2023-03-21T11:41:58.617Z,88.66
2023-03-21T11:43:02.893Z,88.50
2023-03-21T11:44:05.360Z,87.93
2023-03-21T11:45:13.954Z,87.73
2023-03-21T11:46:15.918Z,88.52
2023-03-21T11:47:18.964Z,88.32
2023-03-21T11:48:23.164Z,88.79
2023-03-21T11:49:31.926Z,88.41
2023-03-21T11:50:35.672Z,87.48
2023-03-21T11:51:43.836Z,87.70
2023-03-21T11:52:55.053Z,87.56
2023-03-21T11:54:05.642Z,87.42
2023-03-21T11:55:19.621Z,87.43
2023-03-21T11:56:27.674Z,86.59
2023-03-21T11:57:33.345Z,85.91
2023-03-21T11:58:48.237Z,84.67
2023-03-21T11:59:54.830Z,85.17
2023-03-21T12:01:02.609Z,84.97
2023-03-21T12:02:23.222Z,85.74
2023-03-21T12:03:49.012Z,86.30
2023-03-21T12:04:53.733Z,86.55
2023-03-21T12:05:58.997Z,86.82
2023-03-21T12:07:04.979Z,86.54
2023-03-21T12:08:17.957Z,86.57
2023-03-21T12:09:35.760Z,87.26
2023-03-21T12:10:43.786Z,87.23
2023-03-21T12:11:56.277Z,87.14
2023-03-21T12:13:11.838Z,86.56
2023-03-21T12:14:21.413Z,86.58
2023-03-21T12:15:30.081Z,86.10
2023-03-21T12:16:41.542Z,85.16
2023-03-21T12:17:52.336Z,84.35
2023-03-21T12:19:25.934Z,83.90
2023-03-21T12:20:38.752Z,83.44
2023-03-21T12:21:49.961Z,83.36
2023-03-21T12:23:01.150Z,83.61
2023-03-21T12:24:08.309Z,83.83
2023-03-21T12:25:15.809Z,83.84
2023-03-21T12:26:24.810Z,84.10
2023-03-21T12:27:38.281Z,83.94
2023-03-21T12:28:48.367Z,83.45
2023-03-21T12:30:00.816Z,82.62
2023-03-21T12:31:09.135Z,81.90
2023-03-21T12:32:20.184Z,82.15
2023-03-21T12:33:33.983Z,82.13
2023-03-21T12:35:01.218Z,81.51
2023-03-21T12:36:24.925Z,81.84
2023-03-21T12:37:33.466Z,82.45
2023-03-21T12:38:41.723Z,82.12
2023-03-21T12:40:28.076Z,82.22
2023-03-21T12:41:36.166Z,82.79
2023-03-21T12:42:55.762Z,83.26
2023-03-21T12:44:02.350Z,82.79
2023-03-21T12:45:15.184Z,82.04
2023-03-21T12:46:23.847Z,82.32
2023-03-21T12:47:27.406Z,82.62
2023-03-21T12:48:38.235Z,82.69
2023-03-21T12:49:43.881Z,83.09
2023-03-21T12:50:46.814Z,83.46
2023-03-21T12:51:53.654Z,82.61
2023-03-21T12:52:59.197Z,83.39
2023-03-21T12:54:10.045Z,83.41
2023-03-21T12:55:14.996Z,83.67
2023-03-21T12:56:22.385Z,83.30
2023-03-21T12:57:27.577Z,83.42
2023-03-21T12:58:33.141Z,84.34
2023-03-21T12:59:36.815Z,85.08
2023-03-21T13:00:43.198Z,84.57
2023-03-21T13:01:48.769Z,85.54
2023-03-21T13:02:57.205Z,85.14
2023-03-21T13:04:24.849Z,85.44
2023-03-21T13:05:30.932Z,85.49
2023-03-21T13:06:33.268Z,85.55
2023-03-21T13:07:39.184Z,85.65
2023-03-21T13:08:44.476Z,85.09
2023-03-21T13:09:48.801Z,85.33
2023-03-21T13:10:50.836Z,84.71
2023-03-21T13:11:57.933Z,84.22
2023-03-21T13:13:09.756Z,84.93
2023-03-21T13:14:17.307Z,84.48
2023-03-21T13:15:31.393Z,84.80
2023-03-21T13:16:36.805Z,85.17
2023-03-21T13:17:43.172Z,84.64
2023-03-21T13:18:54.683Z,85.50
2023-03-21T13:20:04.945Z,85.27
2023-03-21T13:21:13.939Z,85.33
2023-03-21T13:22:22.904Z,84.93
2023-03-21T13:23:25.917Z,85.38
2023-03-21T13:24:33.956Z,85.28
2023-03-21T13:25:42.394Z,85.36
2023-03-21T13:26:47.370Z,85.54
2023-03-21T13:27:55.793Z,84.93
2023-03-21T13:29:00.559Z,85.41
2023-03-21T13:30:06.675Z,85.32
2023-03-21T13:31:20.975Z,85.60
2023-03-21T13:32:40.877Z,85.78
2023-03-21T13:33:46.711Z,86.55
2023-03-21T13:34:55.361Z,86.24
2023-03-21T13:36:05.204Z,86.20
2023-03-21T13:37:16.366Z,86.52
2023-03-21T13:38:21.743Z,86.10
2023-03-21T13:39:27.228Z,86.21
2023-03-21T13:40:37.036Z,86.89
2023-03-21T13:41:41.897Z,87.22
2023-03-21T13:42:46.688Z,87.28
2023-03-21T13:43:54.489Z,87.20
2023-03-21T13:45:00.241Z,87.85
2023-03-21T13:46:08.925Z,88.37
2023-03-21T13:47:30.752Z,87.37
2023-03-21T13:48:46.517Z,88.01
2023-03-21T13:50:16.764Z,88.24
2023-03-21T13:51:21.113Z,88.37
2023-03-21T13:52:28.744Z,88.60
2023-03-21T13:53:31.815Z,88.26
2023-03-21T13:54:49.560Z,88.37
2023-03-21T13:56:09.148Z,88.66
2023-03-21T13:57:22.899Z,88.13
2023-03-21T13:58:32.525Z,88.39
2023-03-21T13:59:42.003Z,88.00
2023-03-21T14:00:44.024Z,87.98
2023-03-21T14:02:01.606Z,87.86
2023-03-21T14:03:08.591Z,88.45
2023-03-21T14:04:42.596Z,88.26
2023-03-21T14:05:51.967Z,88.28
2023-03-21T14:06:56.220Z,88.25
2023-03-21T14:08:12.640Z,88.19
2023-03-21T14:09:22.580Z,88.35
2023-03-21T14:10:30.927Z,88.24
2023-03-21T14:11:33.312Z,87.90
2023-03-21T14:12:39.310Z,88.01
2023-03-21T14:13:50.817Z,87.38